createdAt,value
2023-03-21T00:00:41.284Z,80.81
2023-03-21T00:03:08.975Z,81.03
2023-03-21T00:05:42.390Z,80.49
2023-03-21T00:08:09.156Z,79.14
2023-03-21T00:10:41.239Z,79.93
2023-03-21T00:13:13.967Z,81.09
2023-03-21T00:16:01.903Z,82.58
2023-03-21T00:18:31.781Z,80.98
2023-03-21T00:21:29.340Z,82.31
2023-03-21T00:23:46.814Z,81.76
2023-03-21T00:26:14.200Z,82.50
2023-03-21T00:28:42.114Z,80.34
2023-03-21T00:31:09.406Z,79.82
2023-03-21T00:33:37.271Z,79.24
2023-03-21T00:36:05.746Z,81.63
2023-03-21T00:38:32.277Z,82.21
2023-03-21T00:41:04.572Z,79.46
2023-03-21T00:43:34.231Z,80.74
2023-03-21T00:46:00.894Z,80.46
2023-03-21T00:48:27.970Z,79.33
2023-03-21T00:50:57.171Z,78.78
2023-03-21T00:53:23.855Z,79.73
2023-03-21T00:55:50.408Z,79.08
2023-03-21T00:58:17.709Z,78.90
2023-03-21T01:00:47.039Z,79.46
2023-03-21T01:03:24.312Z,80.00
2023-03-21T01:06:05.089Z,79.95
2023-03-21T01:08:51.283Z,80.46
2023-03-21T01:11:22.813Z,81.43
2023-03-21T01:14:20.868Z,79.70
2023-03-21T01:16:37.240Z,80.34
2023-03-21T01:19:09.332Z,78.72
2023-03-21T01:21:41.267Z,79.73
2023-03-21T01:24:08.119Z,79.21
2023-03-21T01:26:34.619Z,78.95
2023-03-21T01:29:01.140Z,80.22
2023-03-21T01:31:27.652Z,79.47
2023-03-21T01:33:54.126Z,80.13
2023-03-21T01:36:25.858Z,80.74
2023-03-21T01:38:53.347Z,80.67
2023-03-21T01:41:41.963Z,79.84
2023-03-21T01:44:17.446Z,81.09
2023-03-21T01:47:07.382Z,79.13
2023-03-21T01:49:38.963Z,80.11
2023-03-21T01:52:13.182Z,79.46
2023-03-21T01:54:43.244Z,78.53
2023-03-21T01:57:13.532Z,79.61
2023-03-21T01:59:46.018Z,78.55
2023-03-21T02:02:17.923Z,80.38
2023-03-21T02:04:56.071Z,78.81
2023-03-21T02:07:28.813Z,81.10
2023-03-21T02:09:56.360Z,79.90
2023-03-21T02:12:23.330Z,79.98
2023-03-21T02:14:50.236Z,77.67
2023-03-21T02:17:38.422Z,78.76
2023-03-21T02:20:27.657Z,79.99
2023-03-21T02:23:39.173Z,79.97
2023-03-21T02:26:17.780Z,80.43
2023-03-21T02:29:04.849Z,80.19
2023-03-21T02:31:40.710Z,81.24
2023-03-21T02:34:22.123Z,80.63
2023-03-21T02:37:07.277Z,80.32
2023-03-21T02:40:15.857Z,80.44
2023-03-21T02:43:22.175Z,78.99
2023-03-21T02:45:55.168Z,80.46
2023-03-21T02:48:44.771Z,80.33
2023-03-21T02:51:19.009Z,80.59
2023-03-21T02:53:53.263Z,80.42
2023-03-21T02:56:27.372Z,80.39
2023-03-21T02:58:53.894Z,79.58
2023-03-21T03:01:20.867Z,79.53
2023-03-21T03:03:47.618Z,80.19
2023-03-21T03:06:25.714Z,81.87
2023-03-21T03:09:31.666Z,80.69
2023-03-21T03:12:14.044Z,82.89
2023-03-21T03:15:02.689Z,81.42
2023-03-21T03:17:43.080Z,82.33
2023-03-21T03:20:25.949Z,81.33
2023-03-21T03:23:54.331Z,81.61
2023-03-21T03:26:27.069Z,80.14
2023-03-21T03:28:56.333Z,81.87
2023-03-21T03:31:30.539Z,82.56
2023-03-21T03:34:00.998Z,84.61
2023-03-21T03:36:33.106Z,85.05
2023-03-21T03:39:00.913Z,85.35
2023-03-21T03:41:29.425Z,84.91
2023-03-21T03:43:58.518Z,83.81
2023-03-21T03:46:46.813Z,84.15
2023-03-21T03:49:15.750Z,83.52
2023-03-21T03:51:58.317Z,84.10
2023-03-21T03:54:29.871Z,83.89
2023-03-21T03:56:56.576Z,82.49
2023-03-21T03:59:24.246Z,83.24
2023-03-21T04:01:51.512Z,83.31
2023-03-21T04:04:18.097Z,82.50
2023-03-21T04:06:51.742Z,82.48
2023-03-21T04:09:22.162Z,81.90
2023-03-21T04:11:51.537Z,81.45
2023-03-21T04:14:18.045Z,81.40
2023-03-21T04:16:44.503Z,84.73
2023-03-21T04:19:11.107Z,83.01
2023-03-21T04:21:37.703Z,83.04
2023-03-21T04:24:04.753Z,82.82
2023-03-21T04:26:33.430Z,82.40
2023-03-21T04:29:00.912Z,82.38
2023-03-21T04:31:28.681Z,82.70
2023-03-21T04:33:55.958Z,82.54
2023-03-21T04:36:26.412Z,83.80
2023-03-21T04:38:53.354Z,84.52
2023-03-21T04:41:20.333Z,81.95
2023-03-21T04:43:47.499Z,82.90
2023-03-21T04:46:14.040Z,82.25
2023-03-21T04:48:40.599Z,83.26
2023-03-21T04:51:07.107Z,82.88
2023-03-21T04:53:33.593Z,82.74
2023-03-21T04:56:00.710Z,81.25
2023-03-21T04:58:27.482Z,82.22
2023-03-21T05:00:54.062Z,82.50
2023-03-21T05:03:22.025Z,82.78
2023-03-21T05:05:49.202Z,83.29
2023-03-21T05:08:18.330Z,81.62
2023-03-21T05:10:44.765Z,82.08
2023-03-21T05:13:11.313Z,82.23
2023-03-21T05:15:38.280Z,82.48
2023-03-21T05:18:11.492Z,81.26
2023-03-21T05:20:42.789Z,81.18
2023-03-21T05:23:12.674Z,82.07
2023-03-21T05:25:40.341Z,82.01
2023-03-21T05:28:07.864Z,82.32
2023-03-21T05:30:34.629Z,82.54
2023-03-21T05:33:01.316Z,82.73
2023-03-21T05:35:27.903Z,80.87
2023-03-21T05:37:54.380Z,81.38
2023-03-21T05:40:21.388Z,82.54
2023-03-21T05:42:48.204Z,81.99
2023-03-21T05:45:15.681Z,83.06
2023-03-21T05:47:42.229Z,81.78
2023-03-21T05:50:09.806Z,82.53
2023-03-21T05:52:36.266Z,80.80
2023-03-21T05:55:03.523Z,82.95
2023-03-21T05:57:30.028Z,84.22
2023-03-21T05:59:56.557Z,83.30
2023-03-21T06:02:23.099Z,82.79
2023-03-21T06:04:49.614Z,83.39
2023-03-21T06:07:16.104Z,84.03
2023-03-21T06:09:42.723Z,85.05
2023-03-21T06:12:09.240Z,84.38
2023-03-21T06:14:35.770Z,84.22
2023-03-21T06:17:02.213Z,85.43
2023-03-21T06:19:28.666Z,82.67
2023-03-21T06:21:55.333Z,83.09
2023-03-21T06:24:22.086Z,83.46
2023-03-21T06:26:48.585Z,84.81
2023-03-21T06:29:15.214Z,85.10
2023-03-21T06:31:41.778Z,85.90
2023-03-21T06:34:10.441Z,84.39
2023-03-21T06:36:37.255Z,85.21
2023-03-21T06:39:04.728Z,84.81
2023-03-21T06:41:31.181Z,83.94
2023-03-21T06:43:57.742Z,84.27
2023-03-21T06:46:24.261Z,85.96
2023-03-21T06:48:50.884Z,84.44
2023-03-21T06:51:17.400Z,84.19
2023-03-21T06:53:44.632Z,84.66
2023-03-21T06:56:12.193Z,84.98
2023-03-21T06:58:39.062Z,84.42
2023-03-21T07:01:06.069Z,85.11
2023-03-21T07:03:33.034Z,83.29
2023-03-21T07:06:03.510Z,83.59
2023-03-21T07:08:29.996Z,81.95
2023-03-21T07:10:57.892Z,82.41
2023-03-21T07:13:24.408Z,83.55
2023-03-21T07:15:52.880Z,83.18
2023-03-21T07:18:19.404Z,83.42
2023-03-21T07:20:51.122Z,84.47
2023-03-21T07:23:25.815Z,85.30
2023-03-21T07:25:52.932Z,85.44
2023-03-21T07:28:20.108Z,85.99
2023-03-21T07:30:52.878Z,86.52
2023-03-21T07:33:19.307Z,86.66
2023-03-21T07:35:45.940Z,87.29
2023-03-21T07:38:13.935Z,86.47
2023-03-21T07:40:40.452Z,86.40
2023-03-21T07:43:06.896Z,85.96
2023-03-21T07:45:33.380Z,87.86
2023-03-21T07:48:01.147Z,86.71
2023-03-21T07:50:27.801Z,84.91
2023-03-21T07:52:54.529Z,84.81
2023-03-21T07:55:21.045Z,85.98
2023-03-21T07:57:50.011Z,86.15
2023-03-21T08:00:23.076Z,86.40
2023-03-21T08:02:57.927Z,86.89
2023-03-21T08:05:28.075Z,85.32
2023-03-21T08:07:54.595Z,86.63
2023-03-21T08:10:21.160Z,87.38
2023-03-21T08:12:47.840Z,87.00
2023-03-21T08:15:14.682Z,86.34
2023-03-21T08:17:41.831Z,85.59
2023-03-21T08:20:10.297Z,87.15
2023-03-21T08:22:36.793Z,85.26
2023-03-21T08:25:05.712Z,84.96
2023-03-21T08:27:32.801Z,84.31
2023-03-21T08:30:00.759Z,86.03
2023-03-21T08:32:31.300Z,84.78
2023-03-21T08:35:01.554Z,85.82
2023-03-21T08:37:28.816Z,84.67
2023-03-21T08:39:55.513Z,84.30
2023-03-21T08:42:22.989Z,85.63
2023-03-21T08:44:49.782Z,86.73
2023-03-21T08:47:16.359Z,87.05
2023-03-21T08:49:45.728Z,86.69
2023-03-21T08:52:12.285Z,86.53
2023-03-21T08:54:40.070Z,86.10
2023-03-21T08:57:06.799Z,85.94
2023-03-21T08:59:33.319Z,85.18
2023-03-21T09:01:59.787Z,84.32
2023-03-21T09:04:27.086Z,86.18
2023-03-21T09:06:56.215Z,86.91
2023-03-21T09:09:22.750Z,86.72
2023-03-21T09:11:50.532Z,85.38
2023-03-21T09:14:19.310Z,87.00
2023-03-21T09:16:46.889Z,89.36
2023-03-21T09:19:13.581Z,87.85
2023-03-21T09:21:40.403Z,87.74
2023-03-21T09:24:07.332Z,88.07
2023-03-21T09:26:33.977Z,88.93
2023-03-21T09:29:01.044Z,88.08
2023-03-21T09:31:28.563Z,87.93
2023-03-21T09:33:58.063Z,87.27
2023-03-21T09:36:27.279Z,86.26
2023-03-21T09:38:54.458Z,88.20
2023-03-21T09:41:38.930Z,88.69
2023-03-21T09:44:09.062Z,87.82
2023-03-21T09:46:56.395Z,87.58
2023-03-21T09:49:29.579Z,86.76
2023-03-21T09:51:56.624Z,88.50
2023-03-21T09:54:28.025Z,88.49
2023-03-21T09:56:57.750Z,88.83
2023-03-21T09:59:30.492Z,88.27
2023-03-21T10:02:00.292Z,87.68
2023-03-21T10:04:27.686Z,87.46
2023-03-21T10:06:58.257Z,87.19
2023-03-21T10:09:30.842Z,86.31
2023-03-21T10:12:02.554Z,86.01
2023-03-21T10:14:36.349Z,88.56
2023-03-21T10:17:23.650Z,85.80
2023-03-21T10:19:57.291Z,86.28
2023-03-21T10:22:23.761Z,86.53
2023-03-21T10:24:50.663Z,88.02
2023-03-21T10:27:17.182Z,87.12
2023-03-21T10:29:44.748Z,86.99
2023-03-21T10:32:14.297Z,87.11
2023-03-21T10:34:44.148Z,88.17
2023-03-21T10:37:12.051Z,87.70
2023-03-21T10:39:40.510Z,86.57
2023-03-21T10:42:09.039Z,88.39
2023-03-21T10:44:36.009Z,87.31
2023-03-21T10:47:08.543Z,88.50
2023-03-21T10:50:06.456Z,89.13
2023-03-21T10:52:27.831Z,89.03
2023-03-21T10:55:08.495Z,86.61
2023-03-21T10:57:37.308Z,88.64
2023-03-21T11:00:17.075Z,88.61
2023-03-21T11:02:48.232Z,88.07
2023-03-21T11:05:28.008Z,88.94
2023-03-21T11:08:01.207Z,88.69
2023-03-21T11:10:32.686Z,87.75
2023-03-21T11:13:04.053Z,87.47
2023-03-21T11:15:42.541Z,86.56
2023-03-21T11:18:19.067Z,88.08
2023-03-21T11:20:57.492Z,87.49
2023-03-21T11:23:29.714Z,86.40
2023-03-21T11:25:58.346Z,89.44
2023-03-21T11:28:28.600Z,87.94
2023-03-21T11:30:57.725Z,88.98
2023-03-21T11:33:28.565Z,88.79
2023-03-21T11:36:00.333Z,88.16
2023-03-21T11:38:31.773Z,87.48
2023-03-21T11:41:01.330Z,86.64
2023-03-21T11:43:31.994Z,87.22
2023-03-21T11:46:04.799Z,87.97
2023-03-21T11:48:35.454Z,88.32
2023-03-21T11:51:39.114Z,87.49
2023-03-21T11:54:22.254Z,87.91
2023-03-21T11:56:54.274Z,88.47
2023-03-21T11:59:35.888Z,86.59
2023-03-21T12:02:15.562Z,89.00
2023-03-21T12:04:46.981Z,87.21
2023-03-21T12:07:38.483Z,88.26
2023-03-21T12:10:16.916Z,89.96
2023-03-21T12:12:56.035Z,88.68
2023-03-21T12:15:37.472Z,88.65
2023-03-21T12:18:32.781Z,88.81
2023-03-21T12:21:34.050Z,88.50
2023-03-21T12:24:25.922Z,87.05
2023-03-21T12:26:59.710Z,85.90
2023-03-21T12:29:40.194Z,86.48
2023-03-21T12:32:09.625Z,88.85
2023-03-21T12:35:01.371Z,85.86
2023-03-21T12:37:53.851Z,88.23
2023-03-21T12:40:40.707Z,86.79
2023-03-21T12:43:29.642Z,88.41
2023-03-21T12:46:00.260Z,87.14
2023-03-21T12:48:48.632Z,87.64
2023-03-21T12:51:18.523Z,86.77
2023-03-21T12:53:53.148Z,86.73
2023-03-21T12:56:28.803Z,87.02
2023-03-21T12:59:05.814Z,87.01
2023-03-21T13:01:32.794Z,84.46
2023-03-21T13:04:27.353Z,87.54
2023-03-21T13:06:55.451Z,85.66
2023-03-21T13:09:38.266Z,88.30
2023-03-21T13:12:28.023Z,86.88
2023-03-21T13:15:24.181Z,86.69
2023-03-21T13:17:59.108Z,85.94
2023-03-21T13:20:46.610Z,87.36
2023-03-21T13:23:13.795Z,88.33
2023-03-21T13:25:46.806Z,88.12
2023-03-21T13:28:19.289Z,88.55
2023-03-21T13:30:47.102Z,89.60
2023-03-21T13:33:16.738Z,88.40
2023-03-21T13:35:45.065Z,87.65
2023-03-21T13:38:21.433Z,88.64
2023-03-21T13:40:50.587Z,87.41
2023-03-21T13:43:42.812Z,86.90
2023-03-21T13:46:14.741Z,87.87
2023-03-21T13:48:57.877Z,87.85
2023-03-21T13:51:47.663Z,87.44
2023-03-21T13:54:14.089Z,88.40
2023-03-21T13:56:46.656Z,87.06
2023-03-21T13:59:34.889Z,88.04
2023-03-21T14:02:13.616Z,89.63
2023-03-21T14:04:53.893Z,87.23
2023-03-21T14:07:31.484Z,86.43
2023-03-21T14:10:29.970Z,85.62
2023-03-21T14:12:57.289Z,88.53
2023-03-21T14:15:27.718Z,86.66
2023-03-21T14:17:55.367Z,87.64
2023-03-21T14:20:24.319Z,87.92
2023-03-21T14:22:51.261Z,87.29
2023-03-21T14:25:20.478Z,87.29
2023-03-21T14:28:09.216Z,86.42
2023-03-21T14:30:40.968Z,87.01
2023-03-21T14:33:11.293Z,86.14
2023-03-21T14:35:38.641Z,86.81
2023-03-21T14:38:07.485Z,89.32
2023-03-21T14:40:33.973Z,90.07
2023-03-21T14:43:07.420Z,86.59
2023-03-21T14:45:35.376Z,86.60
2023-03-21T14:48:08.555Z,88.48
2023-03-21T14:50:47.698Z,88.26
2023-03-21T14:53:29.031Z,90.17
2023-03-21T14:56:08.209Z,88.86
2023-03-21T14:58:38.646Z,88.65
2023-03-21T15:01:07.545Z,85.97
2023-03-21T15:03:34.643Z,87.08
2023-03-21T15:06:01.587Z,87.53
2023-03-21T15:08:29.003Z,87.91
2023-03-21T15:11:08.187Z,85.86
2023-03-21T15:13:45.698Z,88.37
2023-03-21T15:16:14.807Z,87.40
2023-03-21T15:18:42.150Z,89.31
2023-03-21T15:21:12.993Z,87.64
2023-03-21T15:23:40.661Z,87.58
2023-03-21T15:26:07.291Z,84.83
2023-03-21T15:28:34.779Z,85.70
2023-03-21T15:31:01.651Z,86.94
2023-03-21T15:33:28.332Z,87.01
2023-03-21T15:35:57.142Z,86.59
2023-03-21T15:38:40.132Z,85.74
2023-03-21T15:41:28.346Z,84.53
2023-03-21T15:44:15.914Z,85.51
2023-03-21T15:46:51.383Z,83.46
2023-03-21T15:49:27.658Z,86.79
2023-03-21T15:52:01.778Z,89.67
2023-03-21T15:54:34.390Z,86.71
2023-03-21T15:57:09.346Z,88.13
2023-03-21T15:59:40.466Z,87.51
2023-03-21T16:02:17.657Z,86.48
2023-03-21T16:04:56.345Z,86.44
2023-03-21T16:07:25.059Z,84.27
2023-03-21T16:09:58.508Z,83.07
2023-03-21T16:12:25.069Z,83.70
2023-03-21T16:14:51.584Z,86.43
2023-03-21T16:17:30.402Z,84.34
2023-03-21T16:19:57.004Z,84.95
2023-03-21T16:22:23.673Z,83.11
2023-03-21T16:24:50.197Z,82.60
2023-03-21T16:27:17.711Z,83.10
2023-03-21T16:29:44.236Z,85.37
2023-03-21T16:32:17.139Z,86.60
2023-03-21T16:34:45.293Z,84.93
2023-03-21T16:37:12.508Z,86.04
2023-03-21T16:39:39.177Z,86.30
2023-03-21T16:42:05.836Z,83.78
2023-03-21T16:44:33.819Z,85.29
2023-03-21T16:47:02.376Z,85.59
2023-03-21T16:49:29.073Z,85.53
2023-03-21T16:51:57.340Z,83.93
2023-03-21T16:54:24.153Z,86.23
2023-03-21T16:56:53.138Z,85.32
2023-03-21T16:59:20.358Z,88.39
2023-03-21T17:01:48.134Z,85.78
2023-03-21T17:04:16.274Z,86.99
2023-03-21T17:06:47.403Z,86.82
2023-03-21T17:09:15.539Z,87.18
2023-03-21T17:11:42.362Z,86.61
2023-03-21T17:14:10.759Z,87.23
2023-03-21T17:16:40.274Z,87.19
2023-03-21T17:19:16.385Z,86.31
2023-03-21T17:21:42.949Z,87.53
2023-03-21T17:24:10.063Z,87.69
2023-03-21T17:26:37.180Z,85.45
2023-03-21T17:29:03.958Z,86.31
2023-03-21T17:31:37.514Z,85.57
2023-03-21T17:34:04.547Z,84.55
2023-03-21T17:36:39.963Z,85.05
2023-03-21T17:39:08.760Z,85.88
2023-03-21T17:41:35.560Z,84.58
2023-03-21T17:44:02.790Z,84.12
2023-03-21T17:46:29.827Z,85.22
2023-03-21T17:48:56.879Z,85.59
2023-03-21T17:51:26.220Z,84.40
2023-03-21T17:53:52.809Z,85.85
2023-03-21T17:56:26.255Z,84.94
2023-03-21T17:58:53.687Z,84.38
2023-03-21T18:01:20.330Z,83.50
2023-03-21T18:03:47.215Z,84.35
2023-03-21T18:06:18.001Z,85.20
2023-03-21T18:08:45.448Z,85.08
2023-03-21T18:11:12.878Z,85.74
2023-03-21T18:13:40.325Z,84.35
2023-03-21T18:16:07.581Z,85.17
2023-03-21T18:18:34.107Z,85.05
2023-03-21T18:21:01.374Z,84.14
2023-03-21T18:23:27.999Z,84.25
2023-03-21T18:25:54.479Z,84.11
2023-03-21T18:28:21.821Z,82.64
2023-03-21T18:31:07.838Z,85.03
2023-03-21T18:33:37.922Z,84.26
2023-03-21T18:36:07.385Z,84.22
2023-03-21T18:38:34.472Z,84.30
2023-03-21T18:41:00.908Z,84.54
2023-03-21T18:46:16.071Z,84.35
2023-03-21T18:48:43.942Z,86.54
2023-03-21T18:51:11.931Z,84.75
2023-03-21T18:53:52.999Z,84.12
2023-03-21T18:57:06.141Z,84.27
2023-03-21T18:59:08.588Z,84.70
2023-03-21T19:01:35.950Z,83.68
2023-03-21T19:04:22.859Z,84.01
2023-03-21T19:06:53.422Z,84.10
2023-03-21T19:09:29.074Z,84.51
2023-03-21T19:11:58.859Z,83.19
2023-03-21T19:14:26.026Z,82.84
2023-03-21T19:18:03.043Z,83.55
2023-03-21T19:19:41.329Z,82.92
2023-03-21T19:22:07.917Z,82.76
2023-03-21T19:24:34.532Z,83.49
2023-03-21T19:27:01.031Z,83.26
2023-03-21T19:29:27.533Z,83.35
2023-03-21T19:31:54.150Z,83.83
2023-03-21T19:34:20.866Z,85.09
2023-03-21T19:36:51.582Z,84.01
2023-03-21T19:39:22.137Z,84.48
2023-03-21T19:41:48.992Z,84.69
2023-03-21T19:44:15.541Z,83.32
2023-03-21T19:46:42.806Z,85.23
2023-03-21T19:49:09.818Z,84.56
2023-03-21T19:51:37.162Z,85.29
2023-03-21T19:54:05.584Z,85.33
2023-03-21T19:56:32.176Z,85.00
2023-03-21T19:58:59.773Z,86.94
2023-03-21T20:01:26.705Z,85.83
2023-03-21T20:03:53.717Z,85.69
2023-03-21T20:06:22.507Z,85.05
2023-03-21T20:09:47.245Z,85.03
2023-03-21T20:11:36.603Z,85.98
2023-03-21T20:14:03.542Z,84.90
2023-03-21T20:16:35.082Z,84.04
2023-03-21T20:19:04.531Z,85.15
2023-03-21T20:21:36.628Z,84.57
2023-03-21T20:24:08.857Z,85.27
2023-03-21T20:26:37.519Z,87.85
2023-03-21T20:29:43.653Z,85.79
2023-03-21T20:31:53.210Z,86.03
2023-03-21T20:34:20.586Z,86.81
2023-03-21T20:36:48.239Z,87.53
2023-03-21T20:39:15.391Z,89.33
2023-03-21T20:41:41.921Z,87.74
2023-03-21T20:44:42.234Z,86.23
2023-03-21T20:47:00.485Z,87.42
2023-03-21T20:49:28.196Z,88.36
2023-03-21T20:54:42.271Z,88.87
2023-03-21T20:57:09.113Z,86.76
2023-03-21T20:59:35.722Z,87.35
2023-03-21T21:02:05.298Z,88.34
2023-03-21T21:05:12.265Z,86.59
2023-03-21T21:07:21.880Z,87.54
2023-03-21T21:09:49.279Z,89.40
2023-03-21T21:12:19.262Z,90.15
2023-03-21T21:14:46.828Z,89.93
2023-03-21T21:20:01.637Z,87.13
2023-03-21T21:22:29.168Z,87.11
2023-03-21T21:24:55.623Z,88.40
2023-03-21T21:27:22.116Z,86.71
2023-03-21T21:29:50.217Z,87.87
2023-03-21T21:32:18.677Z,87.70
2023-03-21T21:34:45.617Z,88.16
2023-03-21T21:37:12.360Z,87.66
2023-03-21T21:39:40.332Z,87.50
2023-03-21T21:42:06.924Z,88.10
2023-03-21T21:44:33.389Z,88.14
2023-03-21T21:46:59.941Z,87.12
2023-03-21T21:49:31.522Z,88.00
2023-03-21T21:51:59.855Z,88.10
2023-03-21T21:54:30.329Z,88.39
2023-03-21T21:56:58.084Z,86.11
2023-03-21T21:59:24.744Z,86.81
2023-03-21T22:01:51.508Z,88.13
2023-03-21T22:04:18.983Z,88.98
2023-03-21T22:06:48.357Z,87.83
2023-03-21T22:09:18.027Z,88.10
2023-03-21T22:11:44.593Z,87.23
2023-03-21T22:14:11.052Z,88.61
2023-03-21T22:16:37.603Z,87.03
2023-03-21T22:19:04.695Z,90.09
2023-03-21T22:21:34.485Z,87.34
2023-03-21T22:24:01.772Z,84.73
2023-03-21T22:26:28.558Z,86.29
2023-03-21T22:28:55.140Z,86.64
2023-03-21T22:31:27.045Z,88.15
2023-03-21T22:33:56.540Z,86.96
2023-03-21T22:36:22.996Z,86.79
2023-03-21T22:38:49.445Z,84.98
2023-03-21T22:41:15.902Z,86.87
2023-03-21T22:43:42.463Z,85.49
2023-03-21T22:46:09.021Z,86.48
2023-03-21T22:48:35.581Z,86.00
2023-03-21T22:51:02.113Z,86.10
2023-03-21T22:53:29.142Z,86.43
2023-03-21T22:55:55.775Z,87.24
2023-03-21T22:58:22.344Z,86.06
2023-03-21T23:00:48.923Z,86.20
2023-03-21T23:03:16.805Z,86.18
2023-03-21T23:05:44.279Z,85.40
2023-03-21T23:08:11.121Z,85.62
2023-03-21T23:10:39.444Z,86.05
2023-03-21T23:13:07.381Z,85.40
2023-03-21T23:15:34.018Z,84.06
2023-03-21T23:18:00.515Z,86.18
2023-03-21T23:20:27.177Z,84.06
2023-03-21T23:22:53.781Z,85.24
2023-03-21T23:25:20.698Z,84.87
2023-03-21T23:27:50.633Z,86.08
2023-03-21T23:30:17.218Z,84.02
2023-03-21T23:32:43.686Z,85.17
2023-03-21T23:35:10.360Z,85.44
2023-03-21T23:37:37.170Z,85.23
2023-03-21T23:40:08.950Z,86.04
2023-03-21T23:42:36.211Z,86.62
2023-03-21T23:45:02.818Z,86.02
2023-03-21T23:47:30.921Z,84.86
2023-03-21T23:49:58.373Z,86.45
2023-03-21T23:52:28.265Z,85.75
2023-03-21T23:54:55.528Z,85.37
2023-03-21T23:57:22.065Z,85.64
2023-03-21T23:59:48.530Z,86.74
